Kansas City, Missouri
Traffic Map
Current Weather Conditions
Kansas City, Missouri
Clear
Clear
66°
Feels Like: 66°
Wind Chill: 66° Ceiling: Unl
Heat Index: 66° Visibility: 10mi
Dew Point: 61° Wind: 0mph
Humidity: 84% Direction: ° ()
Pressure: 30.1in Gusts: 0mph
Raw Report DataKMKC 311254Z 00000KT 10SM CLR 19/16 A3010 RMK AO2 SLP189 T01890161
Traffic Incident Summary
Active as of:
Severity:
Category:
InformationThere was an issue retrieving the traffic information for this location. Please try a different location or try again shortly.
Advertisements
Track Severe Weather on mobile